Time,TemperatureF,DewpointF,PressureIn,WindDirection,WindDirectionDegrees,WindSpeedMPH,WindSpeedGustMPH,Humidity,HourlyPrecipIn,Conditions,Clouds,dailyrainin,SolarRadiationWatts/m^2,SoftwareType,DateUTC
2013-06-12 00:02:00,64.0,47.0,-100.00,West,275,12.0,18.0,53,0.00,,,0.00,0.000000,,2013-06-12 07:02:00,
2013-06-12 00:22:00,64.0,47.0,-100.00,West,275,12.0,18.0,53,0.00,,,0.00,0.000000,,2013-06-12 07:22:00,
2013-06-12 00:33:00,64.0,47.0,-100.00,West,275,12.0,18.0,53,0.00,,,0.00,0.000000,,2013-06-12 07:33:00,
2013-06-12 00:43:00,64.0,47.0,-100.00,West,275,12.0,18.0,53,0.00,,,0.00,0.000000,,2013-06-12 07:43:00,
2013-06-12 00:53:00,64.0,47.0,-100.00,West,275,12.0,18.0,53,0.00,,,0.00,0.000000,,2013-06-12 07:53:00,
2013-06-12 01:33:00,64.0,46.0,-100.00,West,271,15.0,22.0,52,0.00,,,0.00,0.000000,,2013-06-12 08:33:00,
2013-06-12 01:43:00,64.0,46.0,-100.00,West,271,15.0,22.0,52,0.00,,,0.00,0.000000,,2013-06-12 08:43:00,
2013-06-12 01:53:00,64.0,46.0,-100.00,West,271,15.0,22.0,52,0.00,,,0.00,0.000000,,2013-06-12 08:53:00,
2013-06-12 02:01:00,64.0,46.0,-100.00,West,271,15.0,22.0,52,0.00,,,0.00,0.000000,,2013-06-12 09:01:00,
2013-06-12 02:22:00,65.0,43.0,-100.00,WNW,285,11.0,21.0,45,0.00,,,0.00,0.000000,,2013-06-12 09:22:00,
2013-06-12 02:33:00,65.0,43.0,-100.00,WNW,285,11.0,21.0,45,0.00,,,0.00,0.000000,,2013-06-12 09:33:00,
2013-06-12 02:43:00,65.0,43.0,-100.00,WNW,285,11.0,21.0,45,0.00,,,0.00,0.000000,,2013-06-12 09:43:00,
2013-06-12 02:53:00,65.0,43.0,-100.00,WNW,285,11.0,21.0,45,0.00,,,0.00,0.000000,,2013-06-12 09:53:00,
2013-06-12 03:01:00,65.0,43.0,-100.00,WNW,285,11.0,21.0,45,0.00,,,0.00,0.000000,,2013-06-12 10:01:00,
2013-06-12 03:33:00,65.0,39.0,-100.00,WNW,283,11.0,18.0,39,0.00,,,0.00,0.000000,,2013-06-12 10:33:00,
2013-06-12 03:43:00,65.0,39.0,-100.00,WNW,283,11.0,18.0,39,0.00,,,0.00,0.000000,,2013-06-12 10:43:00,
2013-06-12 03:53:00,65.0,39.0,-100.00,WNW,283,11.0,18.0,39,0.00,,,0.00,0.000000,,2013-06-12 10:53:00,
2013-06-12 04:01:00,65.0,39.0,-100.00,WNW,283,11.0,18.0,39,0.00,,,0.00,0.000000,,2013-06-12 11:01:00,
2013-06-12 04:24:00,65.0,34.0,-100.00,West,276,10.0,16.0,31,0.00,,,0.00,0.000000,,2013-06-12 11:24:00,
2013-06-12 04:33:00,65.0,34.0,-100.00,West,276,10.0,16.0,31,0.00,,,0.00,0.000000,,2013-06-12 11:33:00,
2013-06-12 04:43:00,65.0,34.0,-100.00,West,276,10.0,16.0,31,0.00,,,0.00,0.000000,,2013-06-12 11:43:00,
2013-06-12 04:53:00,65.0,34.0,-100.00,West,276,10.0,16.0,31,0.00,,,0.00,0.000000,,2013-06-12 11:53:00,
2013-06-12 05:01:00,65.0,34.0,-100.00,West,276,10.0,16.0,31,0.00,,,0.00,0.000000,,2013-06-12 12:01:00,
2013-06-12 06:33:00,63.0,35.0,-100.00,West,275,0.0,13.0,35,-99.99,,,0.00,2.000000,,2013-06-12 13:33:00,
2013-06-12 06:43:00,63.0,35.0,-100.00,West,275,0.0,13.0,35,-99.99,,,0.00,2.000000,,2013-06-12 13:43:00,
2013-06-12 06:53:00,63.0,35.0,-100.00,West,275,0.0,13.0,35,-99.99,,,0.00,2.000000,,2013-06-12 13:53:00,
2013-06-12 07:01:00,63.0,35.0,-100.00,West,275,0.0,13.0,35,-99.99,,,0.00,2.000000,,2013-06-12 14:01:00,
2013-06-12 07:24:00,65.0,34.0,-100.00,WNW,282,0.0,0.0,31,0.00,,,0.00,95.000000,,2013-06-12 14:24:00,
2013-06-12 07:33:00,65.0,34.0,-100.00,WNW,282,0.0,0.0,31,0.00,,,0.00,95.000000,,2013-06-12 14:33:00,
2013-06-12 07:43:00,65.0,34.0,-100.00,WNW,282,0.0,0.0,31,0.00,,,0.00,95.000000,,2013-06-12 14:43:00,
2013-06-12 07:53:00,65.0,34.0,-100.00,WNW,282,0.0,0.0,31,0.00,,,0.00,95.000000,,2013-06-12 14:53:00,
2013-06-12 08:33:00,65.0,37.0,-100.00,West,281,0.0,0.0,35,0.00,,,-99.99,284.000000,,2013-06-12 15:33:00,
2013-06-12 08:43:00,65.0,37.0,-100.00,West,281,0.0,0.0,35,0.00,,,-99.99,284.000000,,2013-06-12 15:43:00,
2013-06-12 08:52:00,65.0,37.0,-100.00,West,281,0.0,0.0,35,0.00,,,-99.99,284.000000,,2013-06-12 15:52:00,
2013-06-12 11:43:00,76.0,33.0,-100.00,WSW,255,4.0,11.0,21,0.00,,,0.00,834.000000,,2013-06-12 18:43:00,
2013-06-12 11:53:00,76.0,33.0,-100.00,WSW,255,4.0,11.0,21,0.00,,,0.00,834.000000,,2013-06-12 18:53:00,
2013-06-12 12:01:00,76.0,33.0,-100.00,WSW,255,4.0,11.0,21,0.00,,,0.00,834.000000,,2013-06-12 19:01:00,
2013-06-12 12:22:00,77.0,35.0,-100.00,West,266,6.0,11.0,22,0.00,,,0.00,955.000000,,2013-06-12 19:22:00,
2013-06-12 12:32:00,77.0,35.0,-100.00,West,266,6.0,11.0,22,0.00,,,0.00,955.000000,,2013-06-12 19:32:00,
2013-06-12 12:42:00,77.0,35.0,-100.00,West,266,6.0,11.0,22,0.00,,,0.00,955.000000,,2013-06-12 19:42:00,
2013-06-12 12:52:00,77.0,35.0,-100.00,West,266,6.0,11.0,22,0.00,,,0.00,955.000000,,2013-06-12 19:52:00,
2013-06-12 13:01:00,77.0,35.0,-100.00,West,266,6.0,11.0,22,0.00,,,0.00,955.000000,,2013-06-12 20:01:00,
2013-06-12 13:33:00,77.0,32.0,-100.00,West,262,7.0,13.0,19,0.00,,,0.00,1022.000000,,2013-06-12 20:33:00,
2013-06-12 13:43:00,77.0,32.0,-100.00,West,262,7.0,13.0,19,0.00,,,0.00,1022.000000,,2013-06-12 20:43:00,
2013-06-12 13:54:00,77.0,32.0,-100.00,West,262,7.0,13.0,19,0.00,,,0.00,1022.000000,,2013-06-12 20:54:00,
2013-06-12 14:01:00,77.0,32.0,-100.00,West,262,7.0,13.0,19,0.00,,,0.00,1022.000000,,2013-06-12 21:01:00,
2013-06-12 14:33:00,78.0,39.0,-100.00,West,264,11.0,18.0,25,0.00,,,0.00,1038.000000,,2013-06-12 21:33:00,
2013-06-12 14:43:00,78.0,39.0,-100.00,West,264,11.0,18.0,25,0.00,,,0.00,1038.000000,,2013-06-12 21:43:00,
2013-06-12 14:53:00,78.0,39.0,-100.00,West,264,11.0,18.0,25,0.00,,,0.00,1038.000000,,2013-06-12 21:53:00,
2013-06-12 15:01:00,78.0,39.0,-100.00,West,264,11.0,18.0,25,0.00,,,0.00,1038.000000,,2013-06-12 22:01:00,
2013-06-12 15:33:00,77.0,43.0,-100.00,West,263,11.0,18.0,30,0.00,,,0.00,995.000000,,2013-06-12 22:33:00,
2013-06-12 15:43:00,77.0,43.0,-100.00,West,263,11.0,18.0,30,0.00,,,0.00,995.000000,,2013-06-12 22:43:00,
2013-06-12 15:52:00,77.0,43.0,-100.00,West,263,11.0,18.0,30,0.00,,,0.00,995.000000,,2013-06-12 22:52:00,
2013-06-12 16:01:00,77.0,43.0,-100.00,West,263,11.0,18.0,30,0.00,,,0.00,995.000000,,2013-06-12 23:01:00,
2013-06-12 16:32:00,75.0,39.0,-100.00,West,260,11.0,22.0,27,0.00,,,0.00,897.000000,,2013-06-12 23:32:00,
2013-06-12 16:42:00,75.0,39.0,-100.00,West,260,11.0,22.0,27,0.00,,,0.00,897.000000,,2013-06-12 23:42:00,
2013-06-12 16:52:00,75.0,39.0,-100.00,West,260,11.0,22.0,27,0.00,,,0.00,897.000000,,2013-06-12 23:52:00,
2013-06-12 17:01:00,75.0,39.0,-100.00,West,260,11.0,22.0,27,0.00,,,0.00,897.000000,,2013-06-13 00:01:00,
2013-06-12 17:33:00,74.0,35.0,-100.00,West,262,11.0,24.0,24,0.00,,,0.00,752.000000,,2013-06-13 00:33:00,
2013-06-12 17:43:00,74.0,35.0,-100.00,West,262,11.0,24.0,24,0.00,,,0.00,752.000000,,2013-06-13 00:43:00,
2013-06-12 17:52:00,74.0,35.0,-100.00,West,262,11.0,24.0,24,0.00,,,0.00,752.000000,,2013-06-13 00:52:00,
2013-06-12 18:01:00,74.0,35.0,-100.00,West,262,11.0,24.0,24,0.00,,,0.00,752.000000,,2013-06-13 01:01:00,
2013-06-12 18:33:00,71.0,37.0,-100.00,WSW,255,12.0,24.0,29,0.00,,,0.00,565.000000,,2013-06-13 01:33:00,
2013-06-12 18:43:00,71.0,37.0,-100.00,WSW,255,12.0,24.0,29,0.00,,,0.00,565.000000,,2013-06-13 01:43:00,
2013-06-12 18:53:00,71.0,37.0,-100.00,WSW,255,12.0,24.0,29,0.00,,,0.00,565.000000,,2013-06-13 01:53:00,
2013-06-12 19:01:00,71.0,37.0,-100.00,WSW,255,12.0,24.0,29,0.00,,,0.00,565.000000,,2013-06-13 02:01:00,
2013-06-12 19:33:00,66.0,43.0,-100.00,WSW,253,13.0,24.0,44,0.00,,,0.00,362.000000,,2013-06-13 02:33:00,
2013-06-12 19:43:00,66.0,43.0,-100.00,WSW,253,13.0,24.0,44,0.00,,,0.00,362.000000,,2013-06-13 02:43:00,
2013-06-12 19:52:00,66.0,43.0,-100.00,WSW,253,13.0,24.0,44,0.00,,,0.00,362.000000,,2013-06-13 02:52:00,
2013-06-12 20:01:00,66.0,43.0,-100.00,WSW,253,13.0,24.0,44,0.00,,,0.00,362.000000,,2013-06-13 03:01:00,
2013-06-12 20:22:00,59.0,40.0,-100.00,West,262,14.0,25.0,49,0.00,,,0.00,165.000000,,2013-06-13 03:22:00,
2013-06-12 20:33:00,59.0,40.0,-100.00,West,262,14.0,25.0,49,0.00,,,0.00,165.000000,,2013-06-13 03:33:00,
2013-06-12 20:43:00,59.0,40.0,-100.00,West,262,14.0,25.0,49,0.00,,,0.00,165.000000,,2013-06-13 03:43:00,
2013-06-12 20:52:00,59.0,40.0,-100.00,West,262,14.0,25.0,49,0.00,,,0.00,165.000000,,2013-06-13 03:52:00,
2013-06-12 21:01:00,59.0,40.0,-100.00,West,262,14.0,25.0,49,0.00,,,0.00,165.000000,,2013-06-13 04:01:00,
2013-06-12 21:33:00,54.0,41.0,-100.00,WSW,258,13.0,23.0,62,0.00,,,0.00,11.000000,,2013-06-13 04:33:00,
2013-06-12 21:43:00,54.0,41.0,-100.00,WSW,258,13.0,23.0,62,0.00,,,0.00,11.000000,,2013-06-13 04:43:00,
2013-06-12 21:53:00,54.0,41.0,-100.00,WSW,258,13.0,23.0,62,0.00,,,0.00,11.000000,,2013-06-13 04:53:00,
2013-06-12 22:01:00,54.0,41.0,-100.00,WSW,258,13.0,23.0,62,0.00,,,0.00,11.000000,,2013-06-13 05:01:00,
2013-06-12 22:02:00,54.0,41.0,-100.00,West,262,16.0,23.0,62,0.00,,,0.00,0.000000,,2013-06-13 05:02:00,
2013-06-12 22:33:00,54.0,41.0,-100.00,West,262,16.0,23.0,62,0.00,,,0.00,0.000000,,2013-06-13 05:33:00,
2013-06-12 22:43:00,54.0,41.0,-100.00,West,262,16.0,23.0,62,0.00,,,0.00,0.000000,,2013-06-13 05:43:00,
2013-06-12 22:53:00,54.0,41.0,-100.00,West,262,16.0,23.0,62,0.00,,,0.00,0.000000,,2013-06-13 05:53:00,
2013-06-12 23:33:00,55.0,38.0,-100.00,West,260,13.0,25.0,53,0.00,,,0.00,0.000000,,2013-06-13 06:33:00,
2013-06-12 23:44:00,55.0,38.0,-100.00,West,260,13.0,25.0,53,0.00,,,0.00,0.000000,,2013-06-13 06:44:00,
2013-06-12 23:52:00,55.0,38.0,-100.00,West,260,13.0,25.0,53,0.00,,,0.00,0.000000,,2013-06-13 06:52:00,